^^
Datos históricos de la estación: Murcia-Puente Tocinos
Diario Informe para Septiembre 4, 2019 Unidades:  Ingés    Métrico   Ambas
Diario Semanal Mensual Anual
  Máxima: Mínima: Promedio:
Temperatura: 86.9 °F 72.9 °F 79.2 °F
Punto de rocio: 70.3 °F 65.5 °F 68.4 °F
Humedad: 87% 52.1% 71%
Velocidad viento: 11.8mph 0mph 4.4mph
Racha viento: 21mph - -
Viento- - ESE
Presión: 30.1 in 29.9 in -
Precipitación: 0 in    
 
 
Tabla de datos para Septiembre 4, 2019
Hora Temperatura Punto de rocio Presión Viento Velocidad viento Racha viento Humedad Intensidad lluvia(por hora) Nubes
00:04 75.9 °F 69.4 °F 30.1 in NE 2.4 mph 5 mph 80% 0 in
00:09 75.9 °F 69.6 °F 30.1 in NE 2.4 mph 5 mph 80.8% 0 in
00:14 75.7 °F 69.6 °F 30.1 in ENE 2.4 mph 5 mph 81% 0 in
00:19 75.7 °F 69.4 °F 30.1 in NE 2.2 mph 4.6 mph 81% 0 in
00:24 75.7 °F 69.4 °F 30.1 in ENE 1.8 mph 5 mph 81% 0 in
00:29 75.7 °F 69.4 °F 30.1 in NE 1.9 mph 4 mph 81% 0 in
00:34 75.7 °F 69.4 °F 30.1 in NE 2 mph 4 mph 81% 0 in
00:39 75.7 °F 69.4 °F 30.1 in NE 2 mph 4.6 mph 81% 0 in
00:44 75.7 °F 69.4 °F 30.1 in ENE 2 mph 5 mph 81% 0 in
00:49 75.7 °F 69.4 °F 30.1 in NE 1.8 mph 3.6 mph 81% 0 in
00:54 75.7 °F 69.4 °F 30.1 in NNO 1.4 mph 4.6 mph 81% 0 in
00:59 75.6 °F 69.4 °F 30.1 in NNE 1.7 mph 5 mph 81.6% 0 in
01:04 75.2 °F 69.3 °F 30.1 in NNE 2.4 mph 5 mph 82% 0 in
01:09 75 °F 69.4 °F 30.1 in NNE 2.4 mph 5 mph 82.7% 0 in
01:14 74.8 °F 69.4 °F 30.1 in NE 2.4 mph 5 mph 83% 0 in
01:19 74.8 °F 69.3 °F 30.1 in NE 2.5 mph 5.8 mph 83% 0 in
01:24 74.7 °F 69.3 °F 30.1 in NE 2.9 mph 6.2 mph 83.2% 0 in
01:29 74.7 °F 69.4 °F 30.1 in NE 3.2 mph 6.2 mph 84% 0 in
01:34 74.7 °F 69.4 °F 30.1 in NE 4 mph 6 mph 84% 0 in
01:39 74.5 °F 69.3 °F 30.1 in NE 3.9 mph 6 mph 84% 0 in
01:44 74.3 °F 69.1 °F 30.1 in NE 3.6 mph 6 mph 84% 0 in
01:49 74.1 °F 69.3 °F 30.1 in NE 3.6 mph 6 mph 84.9% 0 in
01:54 74.1 °F 69.3 °F 30.1 in NE 3.6 mph 6 mph 85% 0 in
01:59 73.9 °F 69.1 °F 30.1 in NE 3.9 mph 6.9 mph 85% 0 in
02:04 73.9 °F 69.1 °F 30.1 in NE 4.3 mph 7 mph 85% 0 in
02:09 73.9 °F 69.3 °F 30.1 in NE 4.2 mph 7.4 mph 85.4% 0 in
02:14 73.9 °F 69.4 °F 30.1 in NNE 4 mph 7 mph 86% 0 in
02:19 73.9 °F 69.4 °F 30.1 in NE 3.7 mph 6.9 mph 86% 0 in
02:24 73.8 °F 69.4 °F 30.1 in NE 2.9 mph 7 mph 86% 0 in
02:29 73.8 °F 69.3 °F 30.1 in NE 3.2 mph 7 mph 86% 0 in
02:34 73.8 °F 69.3 °F 30.1 in ENE 4 mph 6 mph 86% 0 in
02:39 73.8 °F 69.3 °F 30.1 in Este 3.5 mph 5 mph 86% 0 in
02:44 73.8 °F 69.3 °F 30.1 in ESE 2.4 mph 5 mph 86% 0 in
02:49 73.6 °F 69.1 °F 30.1 in ENE 2.2 mph 4.6 mph 86% 0 in
02:54 73.6 °F 69.1 °F 30.1 in ENE 1.8 mph 5 mph 86% 0 in
02:59 73.6 °F 69.1 °F 30.1 in ESE 2 mph 4.6 mph 86% 0 in
03:04 73.6 °F 69.3 °F 30.1 in ESE 2.4 mph 5 mph 86.4% 0 in
03:09 73.6 °F 69.4 °F 30.1 in NE 2.2 mph 5.2 mph 87% 0 in
03:14 73.6 °F 69.4 °F 30.1 in NE 2 mph 5 mph 87% 0 in
03:19 73.8 °F 69.6 °F 30.1 in ENE 2.3 mph 5 mph 87% 0 in
03:24 73.8 °F 69.4 °F 30.1 in Este 2.9 mph 5 mph 86.4% 0 in
03:29 73.9 °F 69.4 °F 30.1 in NE 2.6 mph 5 mph 86% 0 in
03:34 73.9 °F 69.4 °F 30.1 in NE 2 mph 4 mph 86% 0 in
03:39 73.9 °F 69.4 °F 30.1 in NE 1.4 mph 2.3 mph 86% 0 in
03:44 73.8 °F 69.3 °F 30.1 in Calm   2 mph 86% 0 in
03:49 73.8 °F 69.3 °F 30.1 in NO 0.4 mph 4 mph 86% 0 in
03:54 73.8 °F 69.3 °F 30.1 in NO 1.4 mph 5 mph 86% 0 in
03:59 73.6 °F 69.1 °F 30.1 in NO 1.6 mph 3 mph 86% 0 in
04:04 73.6 °F 69.1 °F 30.1 in NO 1.8 mph 2 mph 86% 0 in
04:09 73.6 °F 69.1 °F 30.1 in NO 1.2 mph   86% 0 in
04:14 73.6 °F 69.3 °F 30.1 in Calm     86.5% 0 in
04:19 73.8 °F 69.4 °F 30.1 in Calm   1.8 mph 86.5% 0 in
04:24 73.8 °F 69.3 °F 30.1 in Calm   4 mph 86% 0 in
04:29 73.6 °F 69.1 °F 30.1 in NE 0.7 mph 5 mph 86% 0 in
04:34 73.6 °F 69.1 °F 30.1 in NE 2 mph 5 mph 86% 0 in
04:39 73.6 °F 69.3 °F 30 in NE 1.9 mph 4 mph 86.3% 0 in
04:44 73.6 °F 69.4 °F 30 in NE 1.8 mph 2.3 mph 86.9% 0 in
04:49 73.4 °F 69.4 °F 30 in NE 1.2 mph   87% 0 in
04:54 73.4 °F 69.3 °F 30 in Calm     87% 0 in
04:59 73.4 °F 69.3 °F 30 in Calm   2.9 mph 87% 0 in
05:04 73.4 °F 69.3 °F 30 in Calm   3.5 mph 87% 0 in
05:09 73.4 °F 69.3 °F 30 in NE 0.4 mph 3 mph 87% 0 in
05:14 73.4 °F 69.3 °F 30 in NE 1.4 mph 2 mph 87% 0 in
05:19 73.4 °F 69.3 °F 30 in NE 0.9 mph   87% 0 in
05:24 73.4 °F 69.3 °F 30 in Calm   3.1 mph 87% 0 in
05:29 73.4 °F 69.3 °F 30 in NE 0.4 mph 3.5 mph 87% 0 in
05:34 73.2 °F 69.3 °F 30 in NE 1.4 mph 3 mph 87% 0 in
05:39 73.2 °F 69.1 °F 30 in NE 0.9 mph 4 mph 87% 0 in
05:44 73.2 °F 69.1 °F 30 in Calm   5 mph 87% 0 in
05:49 73.2 °F 69.1 °F 30 in SE 0.9 mph 5 mph 87% 0 in
05:54 73 °F 68.9 °F 30 in SE 2.9 mph 5 mph 87% 0 in
05:59 73 °F 68.9 °F 30 in SSE 2.7 mph 5 mph 87% 0 in
06:04 73 °F 68.9 °F 30 in SSE 2.4 mph 5 mph 87% 0 in
06:09 73 °F 68.9 °F 30 in SSE 2.2 mph 4 mph 87% 0 in
06:14 73 °F 68.9 °F 30 in Sur 2 mph 4.6 mph 87% 0 in
06:19 73 °F 68.9 °F 30 in Sur 2.3 mph 5 mph 87% 0 in
06:24 73 °F 68.9 °F 30 in Sur 2.9 mph 5 mph 87% 0 in
06:29 73 °F 68.9 °F 30 in Sur 3 mph 5.2 mph 87% 0 in
06:34 73.2 °F 69.1 °F 30 in SSO 3.1 mph 5 mph 87% 0 in
06:39 73.2 °F 69.1 °F 30 in SSO 3 mph 5.2 mph 87% 0 in
06:44 73.2 °F 68.9 °F 30 in SSO 2.9 mph 5.8 mph 86.3% 0 in
06:49 73.2 °F 68.7 °F 30 in SSO 3.2 mph 6 mph 86% 0 in
06:54 73.2 °F 68.7 °F 30 in SSO 4 mph 5.9 mph 86% 0 in
06:59 73.2 °F 68.7 °F 30 in SSO 3.9 mph 6 mph 86% 0 in
07:04 73.2 °F 68.7 °F 30 in SSO 3.6 mph 6 mph 86% 0 in
07:09 73.2 °F 68.7 °F 30 in SSO 3.6 mph 6 mph 86% 0 in
07:14 73 °F 68.7 °F 30 in SO 3.6 mph 5 mph 86% 0 in
07:19 73 °F 68.5 °F 30 in SO 3 mph 4 mph 86% 0 in
07:24 73 °F 68.5 °F 30 in OSO 1.8 mph 3.6 mph 86% 0 in
07:29 73 °F 68.5 °F 30 in OSO 1.7 mph 4 mph 86% 0 in
07:34 73 °F 68.5 °F 30 in Oeste 1.4 mph 2 mph 86% 0 in
07:39 73 °F 68.5 °F 30 in Oeste 0.9 mph   86% 0 in
07:44 72.9 °F 68.4 °F 30 in Calm     86% 0 in
07:49 72.9 °F 68.4 °F 30 in Calm     86% 0 in
07:54 72.9 °F 68.4 °F 30 in Calm     86% 0 in
07:59 72.9 °F 68.4 °F 30 in Calm     86% 0 in
08:04 72.9 °F 68.4 °F 30.1 in Calm     86% 0 in
08:09 72.9 °F 68.5 °F 30.1 in Calm     86% 0 in
08:14 73 °F 68.5 °F 30.1 in Calm     86% 0 in
08:19 73 °F 68.5 °F 30.1 in Calm     86% 0 in
08:24 73.2 °F 68.5 °F 30.1 in Calm     85.5% 0 in
08:29 73.2 °F 68.4 °F 30.1 in Calm     85% 0 in
08:34 73.6 °F 68.7 °F 30.1 in Calm     85% 0 in
08:39 73.8 °F 68.5 °F 30.1 in Calm   3.1 mph 84.2% 0 in
08:44 73.8 °F 68.5 °F 30.1 in Calm   3.6 mph 84% 0 in
08:49 73.9 °F 68.7 °F 30.1 in SSE 0.6 mph 4 mph 84% 0 in
08:54 74.1 °F 68.9 °F 30.1 in SSE 1.8 mph 2 mph 83.6% 0 in
08:59 74.3 °F 68.9 °F 30.1 in SSE 1.2 mph 3.6 mph 83% 0 in
09:04 74.5 °F 69.1 °F 30.1 in Calm   4 mph 83.2% 0 in
09:09 74.8 °F 69.3 °F 30.1 in SSE 0.6 mph 4 mph 83.1% 0 in
09:14 75.2 °F 69.4 °F 30.1 in ESE 1.8 mph 4 mph 82.3% 0 in
09:19 75.6 °F 69.4 °F 30.1 in ENE 1.9 mph 4.6 mph 81% 0 in
09:24 76.1 °F 69.8 °F 30.1 in ENE 2 mph 5 mph 80.8% 0 in
09:29 76.5 °F 69.8 °F 30.1 in Este 1.9 mph 4.6 mph 79.9% 0 in
09:34 76.8 °F 70 °F 30.1 in Este 1.8 mph 5 mph 79.2% 0 in
09:39 77.4 °F 70 °F 30.1 in ESE 1.7 mph 3 mph 78.2% 0 in
09:44 77.5 °F 70 °F 30.1 in NNE 1.4 mph 3.5 mph 77.6% 0 in
09:49 77.7 °F 70 °F 30.1 in North 0.9 mph 3 mph 77.2% 0 in
09:54 78.3 °F 70.3 °F 30.1 in Calm   2.3 mph 76.8% 0 in
09:59 79 °F 70.3 °F 30.1 in Calm   4.3 mph 74.9% 0 in
10:04 79.2 °F 70.2 °F 30.1 in Calm   5.2 mph 74% 0 in
10:09 78.6 °F 69.8 °F 30.1 in SSE 0.7 mph 5 mph 74.2% 0 in
10:14 78.4 °F 69.8 °F 30.1 in Sur 2.4 mph 5 mph 74.9% 0 in
10:19 78.3 °F 69.8 °F 30.1 in SSO 2.2 mph 5 mph 75% 0 in
10:24 78.4 °F 69.6 °F 30.1 in ESE 2 mph 4.6 mph 74.3% 0 in
10:29 78.6 °F 69.4 °F 30.1 in Este 2.1 mph 5 mph 73.2% 0 in
10:34 79.2 °F 69.6 °F 30.1 in ESE 2.4 mph 5.2 mph 73% 0 in
10:39 79.3 °F 69.6 °F 30.1 in SE 2.3 mph 5 mph 72.2% 0 in
10:44 79.5 °F 69.3 °F 30.1 in Este 2 mph 5.9 mph 70.8% 0 in
10:49 79.2 °F 68.9 °F 30.1 in ENE 2.4 mph 6 mph 71% 0 in
10:54 79.2 °F 68.9 °F 30.1 in North 3.1 mph 5 mph 70.9% 0 in
10:59 79.3 °F 69.1 °F 30.1 in North 2.7 mph 5 mph 70.9% 0 in
11:04 80.1 °F 69.4 °F 30.1 in NNE 2 mph 4.7 mph 70.1% 0 in
11:09 80.4 °F 69.3 °F 30.1 in North 2.1 mph 5.2 mph 68.7% 0 in
11:14 80.6 °F 68.9 °F 30.1 in North 2.4 mph 6.2 mph 67.5% 0 in
11:19 81 °F 68.2 °F 30.1 in SSE 2.4 mph 6 mph 65.5% 0 in
11:24 81 °F 67.6 °F 30.1 in SO 2.4 mph 5.9 mph 64.1% 0 in
11:29 81 °F 68.2 °F 30.1 in NE 2.6 mph 6.9 mph 65.1% 0 in
11:34 81 °F 68.2 °F 30.1 in NNE 3.1 mph 7 mph 65.3% 0 in
11:39 81 °F 68.2 °F 30.1 in NNO 3.2 mph 6.2 mph 65.3% 0 in
11:44 81 °F 67.8 °F 30.1 in NO 3.6 mph 6.9 mph 64.5% 0 in
11:49 81 °F 68.2 °F 30.1 in ESE 3.6 mph 8.1 mph 65% 0 in
11:54 81.3 °F 68.4 °F 30.1 in ESE 3.6 mph 10 mph 64.9% 0 in
11:59 81.9 °F 68.2 °F 30.1 in Este 3.6 mph 10.4 mph 63.3% 0 in
12:04 81.9 °F 68.2 °F 30.1 in ESE 3.6 mph 10 mph 63.2% 0 in
12:09 82 °F 67.5 °F 30.1 in ENE 3.9 mph 8.5 mph 61.6% 0 in
12:14 82.2 °F 67.3 °F 30.1 in NE 4.3 mph 9.2 mph 60.8% 0 in
12:19 82.4 °F 67.5 °F 30.1 in North 4.1 mph 9.2 mph 61% 0 in
12:24 82.6 °F 67.6 °F 30.1 in Este 3.6 mph 10.7 mph 60.7% 0 in
12:29 82.4 °F 67.5 °F 30.1 in ENE 4.1 mph 11 mph 60.4% 0 in
12:34 82.6 °F 67.3 °F 30.1 in NNE 5.2 mph 10.2 mph 60% 0 in
12:39 82.6 °F 67.3 °F 30 in NNE 5.2 mph 11.2 mph 59.7% 0 in
12:44 82.8 °F 67.3 °F 30 in Este 5.2 mph 12 mph 59.5% 0 in
12:49 82.9 °F 67.5 °F 30 in NNE 5.2 mph 10 mph 59.5% 0 in
12:54 83.1 °F 67.1 °F 30 in NE 5.2 mph 12.5 mph 58.5% 0 in
12:59 82.9 °F 67.3 °F 30 in NE 5.3 mph 10.4 mph 59.2% 0 in
13:04 83.5 °F 67.3 °F 30 in NE 5.4 mph 8.1 mph 58.1% 0 in
13:09 83.8 °F 67.1 °F 30 in ESE 5.2 mph 10.4 mph 56.9% 0 in
13:14 84.2 °F 66.4 °F 30 in ESE 4.7 mph 10.4 mph 55.2% 0 in
13:19 84.4 °F 66.4 °F 30 in North 4.7 mph 10 mph 55% 0 in
13:24 84.7 °F 66.6 °F 30 in NE 4.7 mph 7.6 mph 54.4% 0 in
13:29 84.9 °F 66.2 °F 30 in Este 4.6 mph 9.2 mph 53.6% 0 in
13:34 84.9 °F 65.8 °F 30 in Este 4.3 mph 12.3 mph 53% 0 in
13:39 84.6 °F 65.5 °F 30 in Este 4.9 mph 13 mph 52.8% 0 in
13:44 84.7 °F 65.7 °F 30 in ENE 6.2 mph 14.5 mph 53% 0 in
13:49 85.3 °F 65.7 °F 30 in SE 6 mph 15 mph 52.2% 0 in
13:54 85.1 °F 65.7 °F 30 in ENE 5.4 mph 15 mph 52.4% 0 in
13:59 85.1 °F 66 °F 30 in Este 5.6 mph 14 mph 52.8% 0 in
14:04 85.6 °F 66 °F 30 in ESE 5.9 mph 13 mph 52.1% 0 in
14:09 85.6 °F 66.2 °F 30 in Este 6.5 mph 15.9 mph 52.5% 0 in
14:14 85.6 °F 66.7 °F 30 in ESE 7.6 mph 16.1 mph 53.3% 0 in
14:19 85.8 °F 66.7 °F 30 in Este 7.5 mph 14 mph 53.1% 0 in
14:24 86.2 °F 67.1 °F 30 in SE 7.4 mph 13 mph 53% 0 in
14:29 86.2 °F 67.6 °F 30 in ESE 7.5 mph 16.1 mph 54.2% 0 in
14:34 85.8 °F 67.5 °F 30 in SE 7.6 mph 16.1 mph 54.1% 0 in
14:39 85.6 °F 67.5 °F 30 in ESE 8.1 mph 16.1 mph 54.8% 0 in
14:44 85.8 °F 67.6 °F 30 in ESE 9.2 mph 16 mph 54.8% 0 in
14:49 86 °F 67.8 °F 30 in ESE 8.6 mph 14 mph 54.7% 0 in
14:54 86.2 °F 67.8 °F 30 in ESE 7.4 mph 14 mph 54.3% 0 in
14:59 86.4 °F 67.8 °F 30 in Este 7.2 mph 12 mph 54.1% 0 in
15:04 86.4 °F 67.8 °F 30 in Este 6.9 mph 16.1 mph 54% 0 in
15:09 86.4 °F 67.8 °F 30 in ESE 7.4 mph 16 mph 54% 0 in
15:14 86.4 °F 67.6 °F 30 in Este 8.5 mph 14.5 mph 53.8% 0 in
15:19 86.5 °F 68 °F 30 in ESE 8 mph 15 mph 54.1% 0 in
15:24 86.5 °F 68.2 °F 30 in Este 6.9 mph 16.1 mph 54.3% 0 in
15:29 86.7 °F 68.5 °F 30 in ESE 7.6 mph 17.3 mph 55% 0 in
15:34 86.7 °F 68.5 °F 30 in ESE 9.2 mph 18.4 mph 54.6% 0 in
15:39 86.4 °F 68.5 °F 30 in ESE 9.5 mph 18.4 mph 55.6% 0 in
15:44 86.4 °F 68.9 °F 30 in ESE 10.2 mph 18 mph 55.9% 0 in
15:49 86.7 °F 68.7 °F 30 in ESE 9.8 mph 16.3 mph 55.2% 0 in
15:54 86.9 °F 68.9 °F 30 in ESE 8.7 mph 17.5 mph 55% 0 in
15:59 86.5 °F 68.7 °F 30 in ESE 9.2 mph 17.3 mph 55.4% 0 in
16:04 86.4 °F 68.7 °F 30 in ESE 10 mph 18.4 mph 56% 0 in
16:09 85.8 °F 68.7 °F 30 in Este 10.3 mph 18.4 mph 56.7% 0 in
16:14 86 °F 68.9 °F 30 in Este 10.7 mph 18 mph 57% 0 in
16:19 86.4 °F 68.9 °F 30 in ESE 10.1 mph 17.3 mph 56.2% 0 in
16:24 86.2 °F 68.7 °F 30 in ESE 8.7 mph 20.8 mph 56.3% 0 in
16:29 85.8 °F 68.9 °F 30 in SE 9.5 mph 21 mph 56.9% 0 in
16:34 86.4 °F 68.7 °F 30 in SE 11.2 mph 18.4 mph 56.1% 0 in
16:39 86.5 °F 68.9 °F 30 in ESE 10.5 mph 16.3 mph 56% 0 in
16:44 86.5 °F 68.7 °F 30 in ESE 9.2 mph 19 mph 55.4% 0 in
16:49 86.5 °F 68.7 °F 30 in SE 9.4 mph 19 mph 55.4% 0 in
16:54 86.4 °F 68.5 °F 30 in ESE 9.7 mph 19.7 mph 55.4% 0 in
16:59 86 °F 68.5 °F 30 in ESE 10.4 mph 20 mph 56% 0 in
17:04 86.4 °F 68.7 °F 30 in SE 11.8 mph 18.5 mph 56% 0 in
17:09 86.2 °F 68.7 °F 30 in SE 11.2 mph 19 mph 56% 0 in
17:14 85.8 °F 68.4 °F 30 in ESE 10.2 mph 18 mph 56% 0 in
17:19 86.2 °F 68.5 °F 30 in ESE 9.7 mph 17.3 mph 56% 0 in
17:24 86.2 °F 68.4 °F 29.9 in SE 8.7 mph 17.3 mph 55.6% 0 in
17:29 86 °F 68 °F 29.9 in SE 9.1 mph 17.3 mph 55.3% 0 in
17:34 85.8 °F 68 °F 29.9 in SE 10 mph 18.4 mph 55.4% 0 in
17:39 85.6 °F 68.2 °F 29.9 in ESE 9.9 mph 18.4 mph 56.1% 0 in
17:44 85.6 °F 68 °F 29.9 in SE 9.7 mph 19 mph 56% 0 in
17:49 85.3 °F 67.8 °F 29.9 in SE 9.8 mph 19 mph 56% 0 in
17:54 85.5 °F 67.6 °F 29.9 in ESE 10 mph 17.3 mph 55.6% 0 in
17:59 84.9 °F 67.6 °F 29.9 in ESE 10.1 mph 17 mph 56.3% 0 in
18:04 84.9 °F 67.6 °F 30 in ESE 10.2 mph 16.1 mph 56.4% 0 in
18:09 84.9 °F 68 °F 30 in SE 10.1 mph 20.8 mph 57% 0 in
18:14 84.9 °F 68 °F 30 in ESE 9.7 mph 21 mph 57% 0 in
18:19 84.7 °F 67.8 °F 30 in ESE 9.8 mph 18.4 mph 57% 0 in
18:24 84.6 °F 67.6 °F 29.9 in ESE 10 mph 18 mph 57.2% 0 in
18:29 84.6 °F 68 °F 29.9 in ESE 10 mph 17 mph 57.5% 0 in
18:34 84.7 °F 67.8 °F 29.9 in ESE 10 mph 15.2 mph 57.1% 0 in
18:39 84.6 °F 67.6 °F 29.9 in ESE 9.8 mph 15.2 mph 57.3% 0 in
18:44 84.4 °F 67.8 °F 29.9 in SE 9.2 mph 17.5 mph 57.6% 0 in
18:49 84.2 °F 67.6 °F 29.9 in Este 9 mph 17.3 mph 57.8% 0 in
18:54 84 °F 67.6 °F 29.9 in ESE 8.7 mph 15.2 mph 58% 0 in
18:59 83.8 °F 67.5 °F 29.9 in ESE 9.1 mph 17.3 mph 58.1% 0 in
19:04 84 °F 67.6 °F 29.9 in ESE 10 mph 17 mph 58.1% 0 in
19:09 84 °F 67.6 °F 29.9 in ESE 9.3 mph 16.3 mph 58% 0 in
19:14 83.8 °F 67.5 °F 29.9 in ESE 7.6 mph 16.1 mph 58% 0 in
19:19 83.8 °F 67.6 °F 29.9 in ESE 7.6 mph 16.1 mph 58.4% 0 in
19:24 83.7 °F 67.6 °F 29.9 in ESE 7.6 mph 17.8 mph 58.9% 0 in
19:29 83.3 °F 67.6 °F 29.9 in ESE 8.1 mph 18.4 mph 59.2% 0 in
19:34 83.1 °F 67.6 °F 29.9 in SE 9.2 mph 18 mph 59.3% 0 in
19:39 83.1 °F 67.6 °F 29.9 in ESE 8.6 mph 13 mph 59.8% 0 in
19:44 83.1 °F 67.5 °F 29.9 in ESE 7.6 mph 13 mph 59.3% 0 in
19:49 82.8 °F 67.3 °F 29.9 in ESE 7.6 mph 13.8 mph 59.7% 0 in
19:54 82.8 °F 67.3 °F 29.9 in ESE 7.6 mph 17.3 mph 59.5% 0 in
19:59 82.4 °F 67.1 °F 29.9 in ESE 8 mph 17 mph 60% 0 in
20:04 82 °F 67.3 °F 29.9 in ESE 8.7 mph 16.1 mph 60.9% 0 in
20:09 81.9 °F 67.1 °F 29.9 in ESE 8.7 mph 16 mph 61% 0 in
20:14 81.9 °F 67.1 °F 29.9 in ESE 8.7 mph 14 mph 61% 0 in
20:19 81.9 °F 67.3 °F 29.9 in ESE 8.1 mph 15.2 mph 61.4% 0 in
20:24 81.7 °F 67.5 °F 29.9 in ESE 6.9 mph 15 mph 62.1% 0 in
20:29 81.3 °F 67.6 °F 29.9 in ESE 7.1 mph 12.7 mph 63.1% 0 in
20:34 81.1 °F 67.8 °F 29.9 in ESE 7.6 mph 13 mph 64% 0 in
20:39 81 °F 67.8 °F 29.9 in ESE 7.5 mph 13.8 mph 64.6% 0 in
20:44 80.8 °F 67.8 °F 29.9 in ESE 7.4 mph 14 mph 65.1% 0 in
20:49 80.4 °F 68 °F 30 in ESE 7.2 mph 12 mph 66% 0 in
20:54 80.2 °F 68 °F 30 in ESE 6.9 mph 12 mph 66.4% 0 in
20:59 80.2 °F 68.2 °F 30 in ESE 6.5 mph 10 mph 66.7% 0 in
21:04 80.2 °F 68 °F 30 in Este 5.9 mph 9.2 mph 66.3% 0 in
21:09 80.1 °F 67.6 °F 30 in ESE 5.5 mph 9.2 mph 66% 0 in
21:14 80.1 °F 67.6 °F 30 in ESE 4.7 mph 8 mph 66% 0 in
21:19 80.1 °F 67.3 °F 30 in Este 4.3 mph 6 mph 65.2% 0 in
21:24 80.1 °F 67.3 °F 30 in Este 3.6 mph 5 mph 65% 0 in
21:29 80.1 °F 67.5 °F 30 in ENE 3.2 mph 5 mph 65.7% 0 in
21:34 80.1 °F 67.6 °F 30 in Este 2.4 mph 5.2 mph 66% 0 in
21:39 79.9 °F 67.6 °F 30 in Este 2.6 mph 5.9 mph 66.6% 0 in
21:44 79.5 °F 67.6 °F 30 in Este 3.1 mph 10.4 mph 67% 0 in
21:49 79.3 °F 67.8 °F 30 in Este 3.6 mph 10 mph 67.7% 0 in
21:54 79.3 °F 67.8 °F 30 in ESE 4.7 mph 9.2 mph 68% 0 in
21:59 79.3 °F 67.8 °F 30 in SE 4.5 mph 9.2 mph 68% 0 in
22:04 79.3 °F 67.6 °F 30 in SE 4.3 mph 9 mph 67.5% 0 in
22:09 79.3 °F 67.8 °F 30 in ESE 4 mph 9 mph 68% 0 in
22:14 79.3 °F 67.8 °F 30 in ESE 3.6 mph 7 mph 68% 0 in
22:19 79.2 °F 67.8 °F 30 in ESE 3.9 mph 8.5 mph 68.1% 0 in
22:24 79 °F 68 °F 30 in ESE 4.3 mph 9 mph 69% 0 in
22:29 79 °F 67.8 °F 30 in ESE 4.6 mph 9 mph 69% 0 in
22:34 78.8 °F 67.8 °F 30 in ESE 5.2 mph 9 mph 69% 0 in
22:39 79 °F 67.8 °F 30 in ESE 4.9 mph 7.4 mph 69% 0 in
22:44 78.8 °F 67.8 °F 30 in Este 4.3 mph 7 mph 69% 0 in
22:49 78.6 °F 68 °F 30 in ESE 4.3 mph 7 mph 69.9% 0 in
22:54 78.4 °F 68 °F 30 in ESE 4.3 mph 7.4 mph 70% 0 in
22:59 78.4 °F 68.2 °F 30 in ESE 4.5 mph 8.5 mph 70.7% 0 in
23:04 78.4 °F 68.2 °F 30 in ESE 4.7 mph 9 mph 71% 0 in
23:09 78.4 °F 68.4 °F 30 in ESE 4.7 mph 9.2 mph 71% 0 in
23:14 78.4 °F 68.4 °F 30 in SE 4.7 mph 9 mph 71% 0 in
23:19 78.4 °F 68.4 °F 30 in SE 4.6 mph 7 mph 71% 0 in
23:24 78.4 °F 68.4 °F 30 in SE 4.3 mph 7 mph 71% 0 in
23:29 78.3 °F 68.2 °F 30 in ESE 4.1 mph 6 mph 71% 0 in
23:34 78.3 °F 68.2 °F 30 in ESE 3.6 mph 6 mph 71% 0 in
23:39 78.1 °F 68 °F 30 in Este 3.4 mph 5.2 mph 71.3% 0 in
23:44 78.1 °F 68.4 °F 30 in Este 3.1 mph 5 mph 72% 0 in
23:49 78.1 °F 68.4 °F 30 in Este 3.1 mph 5.2 mph 72% 0 in
23:54 77.9 °F 68.2 °F 30 in ENE 3.1 mph 5.2 mph 72.2% 0 in
23:59 77.9 °F 68.5 °F 30 in Este 3 mph 5.8 mph 73% 0 in
Murcia-Puente Tocinos, España
Compliments of Weather Underground - 3 mb

La estación de MeteoMurcia.com, publica sus datos en los siguientes proyectos:

Weather Underground PWS IMURCIAP2 Meteoclimatic www.awekas.at

W3Counter
Web Analytics